Gratis, Ohio
Current Conditions -  °F | °C
As of 10:55 AM on Tuesday 21 Oct 2014 (Local Time) from KMWO Reporting Station
Broken Clouds Broken Clouds  
Wind Chill: 55°   Ceiling: 6000
Heat Index: 55°   Visibility: 10mi
Dew Point: 42°   Wind: 14mph
Humidity: 62%   Direction: 340°NNW
Pressure: 30.05"   Gusts: 20mph
Location:  39.65°N, 84.53°W
Report Text: KMWO 211455Z AUTO 34012G17KT 10SM SCT027 SCT040 BKN060 13/05 A3005 RMK AO2 T01250054
Loading
Personal Weather Stations






























Interactive Weather Map
Tropical Storm Tracking
New forecast layout! Learn more

10-Day Weather Forecast

Advertisements
Track Severe Weather on mobile